sensor_id;sensor_type;location;lat;lon;timestamp;pressure;altitude;pressure_sealevel;temperature;humidity
28510;BME280;15723;55.684;37.928;2023-03-04T00:02:06;98427.78;;;1.00;68.51
28510;BME280;15723;55.684;37.928;2023-03-04T00:04:32;98430.16;;;0.51;70.09
28510;BME280;15723;55.684;37.928;2023-03-04T00:07:01;98429.34;;;0.68;69.57
28510;BME280;15723;55.684;37.928;2023-03-04T00:09:27;98420.47;;;0.86;69.70
28510;BME280;15723;55.684;37.928;2023-03-04T00:11:53;98417.56;;;0.91;68.97
28510;BME280;15723;55.684;37.928;2023-03-04T00:14:20;98413.25;;;0.88;69.38
28510;BME280;15723;55.684;37.928;2023-03-04T00:16:46;98403.34;;;0.72;70.10
28510;BME280;15723;55.684;37.928;2023-03-04T00:19:14;98399.03;;;0.88;69.36
28510;BME280;15723;55.684;37.928;2023-03-04T00:21:40;98394.13;;;0.79;70.41
28510;BME280;15723;55.684;37.928;2023-03-04T00:24:06;98399.66;;;0.93;70.36
28510;BME280;15723;55.684;37.928;2023-03-04T00:26:32;98396.44;;;1.04;69.68
28510;BME280;15723;55.684;37.928;2023-03-04T00:28:59;98397.44;;;0.84;69.89
28510;BME280;15723;55.684;37.928;2023-03-04T00:31:28;98389.13;;;0.71;70.03
28510;BME280;15723;55.684;37.928;2023-03-04T00:33:54;98389.28;;;0.87;69.94
28510;BME280;15723;55.684;37.928;2023-03-04T00:36:20;98381.88;;;0.56;70.56
28510;BME280;15723;55.684;37.928;2023-03-04T00:38:46;98378.47;;;0.71;70.48
28510;BME280;15723;55.684;37.928;2023-03-04T00:41:12;98378.59;;;0.68;70.78
28510;BME280;15723;55.684;37.928;2023-03-04T00:43:40;98379.06;;;0.59;70.69
28510;BME280;15723;55.684;37.928;2023-03-04T00:46:06;98379.06;;;0.78;70.61
28510;BME280;15723;55.684;37.928;2023-03-04T00:48:33;98370.25;;;0.93;70.57
28510;BME280;15723;55.684;37.928;2023-03-04T00:50:59;98368.47;;;0.93;70.30
28510;BME280;15723;55.684;37.928;2023-03-04T00:53:25;98367.50;;;0.94;70.35
28510;BME280;15723;55.684;37.928;2023-03-04T00:55:52;98356.69;;;0.61;70.87
28510;BME280;15723;55.684;37.928;2023-03-04T00:58:18;98363.03;;;0.78;70.36
28510;BME280;15723;55.684;37.928;2023-03-04T01:00:44;98360.53;;;0.56;70.48
28510;BME280;15723;55.684;37.928;2023-03-04T01:03:10;98343.22;;;0.46;71.21
28510;BME280;15723;55.684;37.928;2023-03-04T01:05:36;98349.50;;;0.81;70.51
28510;BME280;15723;55.684;37.928;2023-03-04T01:08:03;98345.84;;;1.01;70.04
28510;BME280;15723;55.684;37.928;2023-03-04T01:10:30;98340.72;;;0.79;70.50
28510;BME280;15723;55.684;37.928;2023-03-04T01:12:58;98352.09;;;0.82;70.57
28510;BME280;15723;55.684;37.928;2023-03-04T01:15:26;98347.25;;;0.54;71.00
28510;BME280;15723;55.684;37.928;2023-03-04T01:17:52;98342.16;;;0.67;71.02
28510;BME280;15723;55.684;37.928;2023-03-04T01:20:19;98345.38;;;0.74;70.72
28510;BME280;15723;55.684;37.928;2023-03-04T01:22:45;98350.97;;;0.69;70.67
28510;BME280;15723;55.684;37.928;2023-03-04T01:25:11;98347.03;;;0.59;70.81
28510;BME280;15723;55.684;37.928;2023-03-04T01:27:38;98343.19;;;0.65;70.90
28510;BME280;15723;55.684;37.928;2023-03-04T01:30:05;98336.41;;;0.57;70.44
28510;BME280;15723;55.684;37.928;2023-03-04T01:32:31;98337.31;;;0.39;71.53
28510;BME280;15723;55.684;37.928;2023-03-04T01:34:57;98342.13;;;0.50;71.40
28510;BME280;15723;55.684;37.928;2023-03-04T01:37:23;98343.16;;;0.47;71.29
28510;BME280;15723;55.684;37.928;2023-03-04T01:39:49;98354.13;;;0.41;71.31
28510;BME280;15723;55.684;37.928;2023-03-04T01:42:18;98351.50;;;0.58;71.17
28510;BME280;15723;55.684;37.928;2023-03-04T01:44:46;98341.81;;;0.39;71.34
28510;BME280;15723;55.684;37.928;2023-03-04T01:47:13;98333.91;;;0.36;71.75
28510;BME280;15723;55.684;37.928;2023-03-04T01:49:40;98345.53;;;0.35;71.59
28510;BME280;15723;55.684;37.928;2023-03-04T01:52:11;98340.19;;;0.35;71.63
28510;BME280;15723;55.684;37.928;2023-03-04T01:54:38;98339.63;;;0.28;72.08
28510;BME280;15723;55.684;37.928;2023-03-04T01:57:22;98336.38;;;0.40;72.10
28510;BME280;15723;55.684;37.928;2023-03-04T02:02:39;98331.53;;;0.84;71.27
28510;BME280;15723;55.684;37.928;2023-03-04T02:05:06;98327.38;;;0.60;71.60
28510;BME280;15723;55.684;37.928;2023-03-04T02:07:32;98316.59;;;0.80;71.30
28510;BME280;15723;55.684;37.928;2023-03-04T02:10:00;98320.00;;;0.65;71.55
28510;BME280;15723;55.684;37.928;2023-03-04T02:12:26;98316.78;;;0.58;72.01
28510;BME280;15723;55.684;37.928;2023-03-04T02:14:52;98311.91;;;0.49;71.99
28510;BME280;15723;55.684;37.928;2023-03-04T02:17:27;98314.88;;;0.43;71.48
28510;BME280;15723;55.684;37.928;2023-03-04T02:22:23;98308.78;;;0.58;71.52
28510;BME280;15723;55.684;37.928;2023-03-04T02:24:56;98305.06;;;0.44;72.02
28510;BME280;15723;55.684;37.928;2023-03-04T02:27:25;98300.16;;;0.35;72.27
28510;BME280;15723;55.684;37.928;2023-03-04T02:29:52;98291.34;;;0.51;71.83
28510;BME280;15723;55.684;37.928;2023-03-04T02:32:18;98285.28;;;0.48;72.41
28510;BME280;15723;55.684;37.928;2023-03-04T02:34:46;98277.13;;;0.51;71.80
28510;BME280;15723;55.684;37.928;2023-03-04T02:37:13;98279.47;;;0.40;72.61
28510;BME280;15723;55.684;37.928;2023-03-04T02:39:43;98271.66;;;0.35;72.49
28510;BME280;15723;55.684;37.928;2023-03-04T02:42:11;98275.28;;;0.34;72.84
28510;BME280;15723;55.684;37.928;2023-03-04T02:44:40;98284.06;;;0.36;72.61
28510;BME280;15723;55.684;37.928;2023-03-04T02:47:10;98270.28;;;0.09;72.90
28510;BME280;15723;55.684;37.928;2023-03-04T02:49:38;98271.56;;;0.19;73.20
28510;BME280;15723;55.684;37.928;2023-03-04T02:52:09;98258.22;;;0.19;73.16
28510;BME280;15723;55.684;37.928;2023-03-04T02:54:37;98255.44;;;-0.15;73.75
28510;BME280;15723;55.684;37.928;2023-03-04T02:57:06;98258.81;;;-0.12;74.11
28510;BME280;15723;55.684;37.928;2023-03-04T02:59:37;98258.50;;;0.13;73.59
28510;BME280;15723;55.684;37.928;2023-03-04T03:02:06;98249.66;;;-0.06;73.56
28510;BME280;15723;55.684;37.928;2023-03-04T03:04:35;98250.75;;;0.09;73.63
28510;BME280;15723;55.684;37.928;2023-03-04T03:07:06;98252.31;;;-0.06;73.59
28510;BME280;15723;55.684;37.928;2023-03-04T03:09:33;98230.94;;;-0.23;74.22
28510;BME280;15723;55.684;37.928;2023-03-04T03:12:00;98236.84;;;-0.17;74.54
28510;BME280;15723;55.684;37.928;2023-03-04T03:14:27;98235.22;;;-0.02;74.52
28510;BME280;15723;55.684;37.928;2023-03-04T03:16:54;98234.13;;;-0.34;74.55
28510;BME280;15723;55.684;37.928;2023-03-04T03:19:20;98232.44;;;0.01;74.13
28510;BME280;15723;55.684;37.928;2023-03-04T03:21:47;98225.00;;;-0.11;74.39
28510;BME280;15723;55.684;37.928;2023-03-04T03:24:14;98225.03;;;-0.30;75.05
28510;BME280;15723;55.684;37.928;2023-03-04T03:26:41;98232.31;;;0.21;74.48
28510;BME280;15723;55.684;37.928;2023-03-04T03:29:07;98219.34;;;-0.22;74.88
28510;BME280;15723;55.684;37.928;2023-03-04T03:31:33;98212.31;;;0.30;73.82
28510;BME280;15723;55.684;37.928;2023-03-04T03:34:00;98214.75;;;-0.02;74.59
28510;BME280;15723;55.684;37.928;2023-03-04T03:36:27;98217.63;;;0.13;74.60
28510;BME280;15723;55.684;37.928;2023-03-04T03:38:53;98214.03;;;0.31;73.93
28510;BME280;15723;55.684;37.928;2023-03-04T03:41:19;98216.34;;;0.56;73.08
28510;BME280;15723;55.684;37.928;2023-03-04T03:43:45;98217.81;;;-0.09;75.35
28510;BME280;15723;55.684;37.928;2023-03-04T03:46:11;98207.75;;;0.15;74.78
28510;BME280;15723;55.684;37.928;2023-03-04T03:48:38;98213.38;;;0.09;74.94
28510;BME280;15723;55.684;37.928;2023-03-04T03:51:04;98203.94;;;0.38;74.51
28510;BME280;15723;55.684;37.928;2023-03-04T03:53:30;98211.97;;;0.02;74.72
28510;BME280;15723;55.684;37.928;2023-03-04T03:55:56;98204.38;;;0.28;75.05
28510;BME280;15723;55.684;37.928;2023-03-04T03:58:23;98200.78;;;0.29;74.65
28510;BME280;15723;55.684;37.928;2023-03-04T04:00:52;98190.84;;;0.50;74.25
28510;BME280;15723;55.684;37.928;2023-03-04T04:03:18;98185.53;;;0.31;74.69
28510;BME280;15723;55.684;37.928;2023-03-04T04:05:44;98172.69;;;0.57;73.83
28510;BME280;15723;55.684;37.928;2023-03-04T04:08:13;98178.66;;;0.45;73.95
28510;BME280;15723;55.684;37.928;2023-03-04T04:10:40;98178.06;;;0.04;75.21
28510;BME280;15723;55.684;37.928;2023-03-04T04:13:06;98174.47;;;0.22;74.83
28510;BME280;15723;55.684;37.928;2023-03-04T04:15:33;98173.78;;;0.18;74.58
28510;BME280;15723;55.684;37.928;2023-03-04T04:17:59;98167.13;;;0.44;74.53
28510;BME280;15723;55.684;37.928;2023-03-04T04:20:25;98160.97;;;0.25;74.10
28510;BME280;15723;55.684;37.928;2023-03-04T04:22:51;98156.75;;;0.21;74.80
28510;BME280;15723;55.684;37.928;2023-03-04T04:25:18;98158.78;;;0.16;75.24
28510;BME280;15723;55.684;37.928;2023-03-04T04:27:44;98158.38;;;0.23;75.19
28510;BME280;15723;55.684;37.928;2023-03-04T04:30:11;98155.97;;;0.19;75.17
28510;BME280;15723;55.684;37.928;2023-03-04T04:32:37;98149.84;;;0.34;74.30
28510;BME280;15723;55.684;37.928;2023-03-04T04:35:03;98152.66;;;0.31;74.54
28510;BME280;15723;55.684;37.928;2023-03-04T04:37:30;98148.53;;;0.43;74.16
28510;BME280;15723;55.684;37.928;2023-03-04T04:39:56;98147.50;;;0.45;74.50
28510;BME280;15723;55.684;37.928;2023-03-04T04:42:22;98149.56;;;0.73;73.58
28510;BME280;15723;55.684;37.928;2023-03-04T04:44:49;98151.16;;;0.77;73.58
28510;BME280;15723;55.684;37.928;2023-03-04T04:47:15;98150.09;;;0.97;72.49
28510;BME280;15723;55.684;37.928;2023-03-04T04:49:41;98146.16;;;0.54;73.08
28510;BME280;15723;55.684;37.928;2023-03-04T04:52:07;98144.22;;;0.73;72.88
28510;BME280;15723;55.684;37.928;2023-03-04T04:54:33;98145.81;;;0.77;72.70
28510;BME280;15723;55.684;37.928;2023-03-04T04:57:00;98136.94;;;0.77;72.64
28510;BME280;15723;55.684;37.928;2023-03-04T04:59:26;98150.88;;;0.49;73.67
28510;BME280;15723;55.684;37.928;2023-03-04T05:01:52;98146.97;;;0.89;72.49
28510;BME280;15723;55.684;37.928;2023-03-04T05:04:18;98150.59;;;0.71;72.91
28510;BME280;15723;55.684;37.928;2023-03-04T05:06:45;98151.81;;;0.48;73.57
28510;BME280;15723;55.684;37.928;2023-03-04T05:09:11;98150.78;;;0.50;73.86
28510;BME280;15723;55.684;37.928;2023-03-04T05:11:38;98146.59;;;0.79;72.64
28510;BME280;15723;55.684;37.928;2023-03-04T05:14:04;98151.34;;;0.57;72.98
28510;BME280;15723;55.684;37.928;2023-03-04T05:16:30;98157.44;;;0.24;73.93
28510;BME280;15723;55.684;37.928;2023-03-04T05:18:56;98150.94;;;0.30;73.73
28510;BME280;15723;55.684;37.928;2023-03-04T05:21:22;98154.16;;;0.54;73.45
28510;BME280;15723;55.684;37.928;2023-03-04T05:23:49;98151.50;;;0.54;72.66
28510;BME280;15723;55.684;37.928;2023-03-04T05:26:16;98152.66;;;0.83;72.45
28510;BME280;15723;55.684;37.928;2023-03-04T05:28:44;98155.41;;;0.64;72.26
28510;BME280;15723;55.684;37.928;2023-03-04T05:31:10;98153.59;;;0.82;71.58
28510;BME280;15723;55.684;37.928;2023-03-04T05:33:37;98151.88;;;0.81;71.70
28510;BME280;15723;55.684;37.928;2023-03-04T05:36:05;98142.81;;;0.83;72.24
28510;BME280;15723;55.684;37.928;2023-03-04T05:38:31;98143.19;;;0.93;71.85
28510;BME280;15723;55.684;37.928;2023-03-04T05:41:03;98131.97;;;1.19;71.15
28510;BME280;15723;55.684;37.928;2023-03-04T05:43:30;98131.28;;;1.32;70.15
28510;BME280;15723;55.684;37.928;2023-03-04T05:45:58;98120.81;;;1.11;70.68
28510;BME280;15723;55.684;37.928;2023-03-04T05:48:25;98125.34;;;1.58;69.75
28510;BME280;15723;55.684;37.928;2023-03-04T05:50:55;98122.56;;;1.28;70.06
28510;BME280;15723;55.684;37.928;2023-03-04T05:53:22;98123.22;;;1.49;70.41
28510;BME280;15723;55.684;37.928;2023-03-04T05:55:49;98120.31;;;1.83;69.13
28510;BME280;15723;55.684;37.928;2023-03-04T05:58:16;98116.00;;;1.97;68.44
28510;BME280;15723;55.684;37.928;2023-03-04T06:00:43;98109.53;;;1.85;67.88
28510;BME280;15723;55.684;37.928;2023-03-04T06:03:20;98109.13;;;1.93;67.46
28510;BME280;15723;55.684;37.928;2023-03-04T06:05:47;98102.31;;;2.17;67.18
28510;BME280;15723;55.684;37.928;2023-03-04T06:08:13;98104.13;;;2.46;67.68
28510;BME280;15723;55.684;37.928;2023-03-04T06:10:40;98097.91;;;2.46;67.78
28510;BME280;15723;55.684;37.928;2023-03-04T06:13:07;98095.28;;;2.89;66.73
28510;BME280;15723;55.684;37.928;2023-03-04T06:15:38;98095.38;;;2.73;65.79
28510;BME280;15723;55.684;37.928;2023-03-04T06:18:05;98092.97;;;3.25;64.59
28510;BME280;15723;55.684;37.928;2023-03-04T06:20:32;98096.25;;;2.73;65.07
28510;BME280;15723;55.684;37.928;2023-03-04T06:22:58;98103.09;;;3.34;64.15
28510;BME280;15723;55.684;37.928;2023-03-04T06:25:24;98092.03;;;3.67;62.60
28510;BME280;15723;55.684;37.928;2023-03-04T06:27:51;98089.81;;;3.19;64.42
28510;BME280;15723;55.684;37.928;2023-03-04T06:30:17;98094.50;;;2.72;64.31
28510;BME280;15723;55.684;37.928;2023-03-04T06:32:44;98090.69;;;2.76;63.90
28510;BME280;15723;55.684;37.928;2023-03-04T06:35:13;98087.81;;;3.08;63.95
28510;BME280;15723;55.684;37.928;2023-03-04T06:37:40;98083.53;;;3.05;65.01
28510;BME280;15723;55.684;37.928;2023-03-04T06:40:08;98080.56;;;3.10;63.84
28510;BME280;15723;55.684;37.928;2023-03-04T06:42:35;98082.34;;;3.38;63.98
28510;BME280;15723;55.684;37.928;2023-03-04T06:45:03;98073.28;;;4.07;62.26
28510;BME280;15723;55.684;37.928;2023-03-04T06:47:30;98069.75;;;4.06;61.43
28510;BME280;15723;55.684;37.928;2023-03-04T06:49:56;98053.84;;;4.68;60.03
28510;BME280;15723;55.684;37.928;2023-03-04T06:52:22;98069.00;;;4.69;59.42
28510;BME280;15723;55.684;37.928;2023-03-04T06:54:49;98056.53;;;4.68;58.51
28510;BME280;15723;55.684;37.928;2023-03-04T06:57:15;98057.56;;;4.15;59.69
28510;BME280;15723;55.684;37.928;2023-03-04T06:59:41;98056.22;;;4.60;59.98
28510;BME280;15723;55.684;37.928;2023-03-04T07:02:11;98052.84;;;4.31;58.64
28510;BME280;15723;55.684;37.928;2023-03-04T07:04:39;98047.41;;;4.96;58.42
28510;BME280;15723;55.684;37.928;2023-03-04T07:07:05;98043.16;;;4.16;59.15
28510;BME280;15723;55.684;37.928;2023-03-04T07:09:32;98049.66;;;3.99;59.88
28510;BME280;15723;55.684;37.928;2023-03-04T07:11:58;98045.78;;;4.03;60.27
28510;BME280;15723;55.684;37.928;2023-03-04T07:14:24;98043.47;;;4.12;59.93
28510;BME280;15723;55.684;37.928;2023-03-04T07:16:50;98045.66;;;3.92;59.86
28510;BME280;15723;55.684;37.928;2023-03-04T07:19:16;98044.41;;;3.44;60.79
28510;BME280;15723;55.684;37.928;2023-03-04T07:21:43;98038.69;;;3.63;60.77
28510;BME280;15723;55.684;37.928;2023-03-04T07:24:09;98029.94;;;4.13;61.28
28510;BME280;15723;55.684;37.928;2023-03-04T07:26:35;98023.66;;;4.65;58.98
28510;BME280;15723;55.684;37.928;2023-03-04T07:29:03;98007.38;;;6.02;54.91
28510;BME280;15723;55.684;37.928;2023-03-04T07:31:31;97995.69;;;6.94;52.68
28510;BME280;15723;55.684;37.928;2023-03-04T07:34:00;97993.81;;;6.61;52.48
28510;BME280;15723;55.684;37.928;2023-03-04T07:36:27;97987.81;;;6.68;53.08
28510;BME280;15723;55.684;37.928;2023-03-04T07:38:54;97995.13;;;6.33;53.59
28510;BME280;15723;55.684;37.928;2023-03-04T07:41:23;97984.06;;;5.89;53.40
28510;BME280;15723;55.684;37.928;2023-03-04T07:43:50;97991.72;;;6.53;52.52
28510;BME280;15723;55.684;37.928;2023-03-04T07:46:17;97989.66;;;6.56;51.40
28510;BME280;15723;55.684;37.928;2023-03-04T07:48:44;97990.41;;;7.26;50.63
28510;BME280;15723;55.684;37.928;2023-03-04T07:51:12;97992.47;;;6.66;52.36
28510;BME280;15723;55.684;37.928;2023-03-04T07:53:39;97980.47;;;7.26;50.16
28510;BME280;15723;55.684;37.928;2023-03-04T07:56:09;97980.72;;;6.89;51.92
28510;BME280;15723;55.684;37.928;2023-03-04T07:58:36;97975.63;;;7.41;51.23
28510;BME280;15723;55.684;37.928;2023-03-04T08:01:10;97973.13;;;6.72;51.72
28510;BME280;15723;55.684;37.928;2023-03-04T08:03:37;97966.84;;;7.82;49.85
28510;BME280;15723;55.684;37.928;2023-03-04T08:06:07;97966.97;;;6.48;52.75
28510;BME280;15723;55.684;37.928;2023-03-04T08:08:35;97973.38;;;6.80;51.83
28510;BME280;15723;55.684;37.928;2023-03-04T08:11:06;97954.91;;;6.18;51.71
28510;BME280;15723;55.684;37.928;2023-03-04T08:13:33;97967.97;;;6.80;50.71
28510;BME280;15723;55.684;37.928;2023-03-04T08:15:59;97957.06;;;7.15;51.29
28510;BME280;15723;55.684;37.928;2023-03-04T08:18:26;97954.38;;;6.71;53.16
28510;BME280;15723;55.684;37.928;2023-03-04T08:20:52;97951.47;;;6.16;52.18
28510;BME280;15723;55.684;37.928;2023-03-04T08:23:18;97944.66;;;6.35;52.59
28510;BME280;15723;55.684;37.928;2023-03-04T08:25:45;97942.66;;;6.14;54.52
28510;BME280;15723;55.684;37.928;2023-03-04T08:28:12;97941.81;;;6.25;53.28
28510;BME280;15723;55.684;37.928;2023-03-04T08:30:39;97946.34;;;5.18;53.92
28510;BME280;15723;55.684;37.928;2023-03-04T08:33:06;97937.00;;;5.11;54.43
28510;BME280;15723;55.684;37.928;2023-03-04T08:35:36;97934.44;;;5.81;54.14
28510;BME280;15723;55.684;37.928;2023-03-04T08:38:02;97940.53;;;5.24;54.31
28510;BME280;15723;55.684;37.928;2023-03-04T08:40:29;97934.56;;;5.55;54.14
28510;BME280;15723;55.684;37.928;2023-03-04T08:42:56;97920.44;;;5.64;54.93
28510;BME280;15723;55.684;37.928;2023-03-04T08:45:22;97928.06;;;5.82;54.55
28510;BME280;15723;55.684;37.928;2023-03-04T08:47:50;97927.28;;;5.92;54.50
28510;BME280;15723;55.684;37.928;2023-03-04T08:50:17;97917.44;;;5.56;55.57
28510;BME280;15723;55.684;37.928;2023-03-04T08:52:43;97921.06;;;5.44;56.87
28510;BME280;15723;55.684;37.928;2023-03-04T08:55:10;97919.44;;;6.36;54.21
28510;BME280;15723;55.684;37.928;2023-03-04T08:57:36;97921.09;;;6.03;54.39
28510;BME280;15723;55.684;37.928;2023-03-04T09:00:03;97912.38;;;5.41;56.86
28510;BME280;15723;55.684;37.928;2023-03-04T09:02:31;97912.66;;;5.49;57.60
28510;BME280;15723;55.684;37.928;2023-03-04T09:04:57;97903.78;;;5.36;58.45
28510;BME280;15723;55.684;37.928;2023-03-04T09:07:23;97912.81;;;5.11;58.16
28510;BME280;15723;55.684;37.928;2023-03-04T09:09:49;97897.53;;;5.35;56.52
28510;BME280;15723;55.684;37.928;2023-03-04T09:12:16;97902.72;;;5.97;56.19
28510;BME280;15723;55.684;37.928;2023-03-04T09:14:42;97892.31;;;6.15;56.86
28510;BME280;15723;55.684;37.928;2023-03-04T09:17:08;97883.72;;;5.63;56.55
28510;BME280;15723;55.684;37.928;2023-03-04T09:19:34;97878.59;;;5.60;57.52
28510;BME280;15723;55.684;37.928;2023-03-04T09:22:01;97883.91;;;5.49;58.46
28510;BME280;15723;55.684;37.928;2023-03-04T09:24:27;97866.63;;;5.76;56.32
28510;BME280;15723;55.684;37.928;2023-03-04T09:26:54;97862.44;;;5.60;58.30
28510;BME280;15723;55.684;37.928;2023-03-04T09:29:21;97865.47;;;5.91;56.99
28510;BME280;15723;55.684;37.928;2023-03-04T09:31:47;97850.88;;;5.47;56.91
28510;BME280;15723;55.684;37.928;2023-03-04T09:34:14;97856.47;;;6.37;57.03
28510;BME280;15723;55.684;37.928;2023-03-04T09:36:40;97850.09;;;6.49;56.75
28510;BME280;15723;55.684;37.928;2023-03-04T09:39:06;97844.91;;;5.90;58.71
28510;BME280;15723;55.684;37.928;2023-03-04T09:41:36;97833.81;;;7.16;55.97
28510;BME280;15723;55.684;37.928;2023-03-04T09:46:56;97822.06;;;6.18;57.64
28510;BME280;15723;55.684;37.928;2023-03-04T09:49:24;97819.78;;;5.78;57.05
28510;BME280;15723;55.684;37.928;2023-03-04T09:51:56;97819.41;;;5.72;57.84
28510;BME280;15723;55.684;37.928;2023-03-04T10:05:56;97802.66;;;4.61;61.56
28510;BME280;15723;55.684;37.928;2023-03-04T10:14:14;97791.75;;;5.23;59.86
28510;BME280;15723;55.684;37.928;2023-03-04T10:16:44;97789.03;;;4.88;60.81
28510;BME280;15723;55.684;37.928;2023-03-04T10:21:47;97776.72;;;4.49;62.61
28510;BME280;15723;55.684;37.928;2023-03-04T10:24:17;97776.94;;;4.10;62.58
28510;BME280;15723;55.684;37.928;2023-03-04T10:26:45;97757.47;;;4.19;62.42
28510;BME280;15723;55.684;37.928;2023-03-04T10:29:16;97766.50;;;4.18;63.47
28510;BME280;15723;55.684;37.928;2023-03-04T10:31:43;97759.03;;;3.85;62.45
28510;BME280;15723;55.684;37.928;2023-03-04T10:34:12;97747.06;;;4.01;63.51
28510;BME280;15723;55.684;37.928;2023-03-04T10:39:17;97736.84;;;4.06;62.17
28510;BME280;15723;55.684;37.928;2023-03-04T10:41:59;97725.84;;;4.59;61.24
28510;BME280;15723;55.684;37.928;2023-03-04T10:44:26;97728.81;;;4.67;61.06
28510;BME280;15723;55.684;37.928;2023-03-04T10:46:55;97725.66;;;4.73;60.46
28510;BME280;15723;55.684;37.928;2023-03-04T10:49:23;97726.84;;;4.69;58.72
28510;BME280;15723;55.684;37.928;2023-03-04T10:52:02;97719.84;;;4.55;58.14
28510;BME280;15723;55.684;37.928;2023-03-04T10:54:41;97709.13;;;4.66;58.99
28510;BME280;15723;55.684;37.928;2023-03-04T10:57:18;97710.84;;;4.44;59.68
28510;BME280;15723;55.684;37.928;2023-03-04T11:00:57;97695.19;;;4.85;57.52
28510;BME280;15723;55.684;37.928;2023-03-04T11:02:51;97690.88;;;4.48;59.81
28510;BME280;15723;55.684;37.928;2023-03-04T11:05:24;97696.31;;;4.70;60.60
28510;BME280;15723;55.684;37.928;2023-03-04T11:07:53;97688.69;;;4.53;60.37
28510;BME280;15723;55.684;37.928;2023-03-04T11:15:25;97689.94;;;4.36;64.97
28510;BME280;15723;55.684;37.928;2023-03-04T11:18:08;97685.53;;;4.11;67.45
28510;BME280;15723;55.684;37.928;2023-03-04T11:20:39;97684.13;;;4.05;69.17
28510;BME280;15723;55.684;37.928;2023-03-04T11:23:19;97683.38;;;3.80;68.08
28510;BME280;15723;55.684;37.928;2023-03-04T11:26:08;97683.41;;;3.41;68.55
28510;BME280;15723;55.684;37.928;2023-03-04T11:29:01;97687.59;;;3.95;67.69
28510;BME280;15723;55.684;37.928;2023-03-04T11:31:39;97674.56;;;3.78;68.00
28510;BME280;15723;55.684;37.928;2023-03-04T11:34:33;97666.06;;;3.84;69.09
28510;BME280;15723;55.684;37.928;2023-03-04T11:37:24;97664.41;;;3.57;68.11
28510;BME280;15723;55.684;37.928;2023-03-04T11:40:36;97661.59;;;3.59;68.51
28510;BME280;15723;55.684;37.928;2023-03-04T11:43:06;97652.25;;;3.64;67.31
28510;BME280;15723;55.684;37.928;2023-03-04T11:51:10;97642.34;;;3.41;68.05
28510;BME280;15723;55.684;37.928;2023-03-04T11:56:52;97637.84;;;3.03;69.61
28510;BME280;15723;55.684;37.928;2023-03-04T11:59:32;97641.72;;;3.12;72.79
28510;BME280;15723;55.684;37.928;2023-03-04T12:10:11;97626.78;;;2.82;75.10
28510;BME280;15723;55.684;37.928;2023-03-04T12:13:08;97624.44;;;2.91;74.67
28510;BME280;15723;55.684;37.928;2023-03-04T12:31:45;97593.53;;;2.47;80.57
28510;BME280;15723;55.684;37.928;2023-03-04T12:37:27;97589.06;;;2.20;81.61
28510;BME280;15723;55.684;37.928;2023-03-04T12:57:05;97567.72;;;2.33;81.70
28510;BME280;15723;55.684;37.928;2023-03-04T12:59:38;97555.63;;;1.88;80.02
28510;BME280;15723;55.684;37.928;2023-03-04T13:08:06;97540.50;;;2.27;83.04
28510;BME280;15723;55.684;37.928;2023-03-04T13:10:35;97526.44;;;1.98;82.11
28510;BME280;15723;55.684;37.928;2023-03-04T13:13:02;97537.94;;;2.25;83.08
28510;BME280;15723;55.684;37.928;2023-03-04T13:15:36;97530.41;;;2.17;82.76
28510;BME280;15723;55.684;37.928;2023-03-04T13:23:37;97520.88;;;2.13;83.20
28510;BME280;15723;55.684;37.928;2023-03-04T13:26:17;97518.81;;;1.92;82.02
28510;BME280;15723;55.684;37.928;2023-03-04T13:28:51;97516.78;;;1.95;82.54
28510;BME280;15723;55.684;37.928;2023-03-04T13:31:21;97502.13;;;1.88;82.28
28510;BME280;15723;55.684;37.928;2023-03-04T13:33:52;97490.69;;;1.59;82.32
28510;BME280;15723;55.684;37.928;2023-03-04T13:41:51;97492.94;;;1.92;84.77
28510;BME280;15723;55.684;37.928;2023-03-04T13:47:19;97483.63;;;1.98;84.56
28510;BME280;15723;55.684;37.928;2023-03-04T13:49:46;97469.81;;;1.91;83.35
28510;BME280;15723;55.684;37.928;2023-03-04T13:52:38;97472.88;;;1.85;84.23
28510;BME280;15723;55.684;37.928;2023-03-04T13:55:34;97475.13;;;1.78;84.98
28510;BME280;15723;55.684;37.928;2023-03-04T13:58:12;97458.59;;;1.99;84.57
28510;BME280;15723;55.684;37.928;2023-03-04T14:00:49;97458.56;;;1.86;83.69
28510;BME280;15723;55.684;37.928;2023-03-04T14:03:27;97459.31;;;1.88;83.42
28510;BME280;15723;55.684;37.928;2023-03-04T14:06:27;97449.97;;;1.68;84.51
28510;BME280;15723;55.684;37.928;2023-03-04T14:08:55;97451.03;;;1.78;84.28
28510;BME280;15723;55.684;37.928;2023-03-04T14:11:33;97448.25;;;1.80;83.28
28510;BME280;15723;55.684;37.928;2023-03-04T14:14:04;97445.94;;;1.88;83.67
28510;BME280;15723;55.684;37.928;2023-03-04T14:16:46;97439.75;;;1.87;84.18
28510;BME280;15723;55.684;37.928;2023-03-04T14:19:43;97436.69;;;1.67;83.35
28510;BME280;15723;55.684;37.928;2023-03-04T14:25:05;97426.00;;;1.79;84.12
28510;BME280;15723;55.684;37.928;2023-03-04T14:27:34;97429.22;;;1.72;83.56
28510;BME280;15723;55.684;37.928;2023-03-04T14:30:04;97425.69;;;1.71;84.84
28510;BME280;15723;55.684;37.928;2023-03-04T14:32:30;97417.41;;;1.49;83.42
28510;BME280;15723;55.684;37.928;2023-03-04T14:35:01;97419.59;;;1.69;85.16
28510;BME280;15723;55.684;37.928;2023-03-04T14:40:24;97417.31;;;1.50;84.39
28510;BME280;15723;55.684;37.928;2023-03-04T14:42:58;97399.75;;;1.46;85.38
28510;BME280;15723;55.684;37.928;2023-03-04T14:45:27;97407.38;;;1.52;84.50
28510;BME280;15723;55.684;37.928;2023-03-04T14:47:58;97393.47;;;1.60;85.46
28510;BME280;15723;55.684;37.928;2023-03-04T14:50:27;97392.41;;;1.50;85.47
28510;BME280;15723;55.684;37.928;2023-03-04T14:55:32;97401.16;;;1.52;85.66
28510;BME280;15723;55.684;37.928;2023-03-04T14:58:15;97395.84;;;1.65;85.91
28510;BME280;15723;55.684;37.928;2023-03-04T15:00:48;97386.91;;;1.39;85.70
28510;BME280;15723;55.684;37.928;2023-03-04T15:03:27;97386.84;;;1.53;85.99
28510;BME280;15723;55.684;37.928;2023-03-04T15:05:54;97379.34;;;1.58;86.20
28510;BME280;15723;55.684;37.928;2023-03-04T15:11:43;97370.28;;;1.61;85.92